Time;durP1;ratioP1;P1;durP2;ratioP2;P2;SDS_P1;SDS_P2;PMS_P1;PMS_P2;Temp;Humidity;BMP_temperature;BMP_pressure;BME280_temperature;BME280_humidity;BME280_pressure;Samples;Min_cycle;Max_cycle;Signal;HPM_P1;HPM_P2
2021/01/10 00:02:12;;;;;;;86.03;37.17;;;;;;;-3.12;89.42;100890.03;5072911;28;20039;-77
2021/01/10 00:04:37;;;;;;;83.75;35.47;;;;;;;-3.17;89.84;100881.31;5073988;28;20039;-77
2021/01/10 00:07:03;;;;;;;80.32;34.40;;;;;;;-3.14;89.58;100893.50;5073337;28;20115;-78
2021/01/10 00:09:28;;;;;;;79.28;34.10;;;;;;;-3.39;89.97;100850.72;5056297;28;20111;-78
2021/01/10 00:11:54;;;;;;;79.35;35.72;;;;;;;-3.15;89.95;100895.25;5073885;28;20033;-77
2021/01/10 00:14:19;;;;;;;82.47;37.60;;;;;;;-3.29;90.66;100899.50;5074280;28;20060;-78
2021/01/10 00:16:45;;;;;;;97.63;40.70;;;;;;;-3.45;90.99;100893.31;5073669;28;20128;-78
2021/01/10 00:19:10;;;;;;;105.07;44.83;;;;;;;-3.36;91.15;100882.06;5056328;28;20123;-77
2021/01/10 00:21:36;;;;;;;91.25;41.85;;;;;;;-3.19;91.11;100906.50;5072648;28;20032;-78
2021/01/10 00:24:06;;;;;;;83.88;37.08;;;;;;;-3.13;90.67;100895.25;5073978;28;20041;-78
2021/01/10 00:26:36;;;;;;;71.70;32.20;;;;;;;-2.95;90.02;100905.78;5073966;28;20078;-78
2021/01/10 00:29:06;;;;;;;75.03;32.70;;;;;;;-2.99;89.78;100886.66;5072730;28;20040;-77
2021/01/10 00:31:32;;;;;;;77.00;32.25;;;;;;;-2.89;89.61;100891.03;5072794;28;20054;-77
2021/01/10 00:33:58;;;;;;;83.18;35.30;;;;;;;-2.83;89.33;100915.41;5072746;28;20032;-78
2021/01/10 00:36:31;;;;;;;79.05;33.72;;;;;;;-2.82;89.17;100906.72;5072281;28;20130;-76
2021/01/10 00:38:57;;;;;;;80.97;34.20;;;;;;;-2.83;89.03;100903.22;5072216;28;20086;-75
2021/01/10 00:41:22;;;;;;;67.25;31.38;;;;;;;-2.68;88.82;100915.50;5055901;28;20037;-75
2021/01/10 00:43:48;;;;;;;70.75;30.73;;;;;;;-3.06;88.63;100856.16;5072234;28;20040;-74
2021/01/10 00:46:14;;;;;;;73.47;30.58;;;;;;;-2.59;88.36;100925.97;5073928;28;20120;-74
2021/01/10 00:48:39;;;;;;;75.15;31.35;;;;;;;-2.86;88.49;100884.06;5055460;28;20041;-75
2021/01/10 00:51:11;;;;;;;71.78;32.80;;;;;;;-2.59;88.05;100920.75;5072126;28;20127;-74
2021/01/10 00:53:36;;;;;;;77.50;33.17;;;;;;;-2.97;88.35;100866.63;5071950;28;20032;-74
2021/01/10 00:56:04;;;;;;;68.47;31.13;;;;;;;-2.56;88.20;100925.13;5072618;28;20046;-75
2021/01/10 00:58:29;;;;;;;78.18;33.55;;;;;;;-2.48;87.77;100926.03;5055492;28;20033;-75
2021/01/10 01:00:55;;;;;;;79.75;33.88;;;;;;;-2.41;88.39;100927.78;5072286;28;20375;-77
2021/01/10 01:03:21;;;;;;;74.45;34.33;;;;;;;-2.49;88.36;100919.94;5072274;28;20028;-78
2021/01/10 01:05:48;;;;;;;79.30;33.58;;;;;;;-2.38;88.46;100931.28;5073227;28;20385;-78
2021/01/10 01:08:13;;;;;;;81.63;33.63;;;;;;;-2.28;87.99;100921.72;5073173;28;20036;-76
2021/01/10 01:10:39;;;;;;;71.85;31.88;;;;;;;-2.46;87.63;100865.06;5038500;28;20040;-77
2021/01/10 01:13:04;;;;;;;75.18;32.60;;;;;;;-2.24;87.84;100909.53;5055818;28;20047;-74
2021/01/10 01:15:30;;;;;;;67.00;31.08;;;;;;;-2.20;87.61;100924.38;5072007;28;20025;-75
2021/01/10 01:17:55;;;;;;;64.25;29.80;;;;;;;-2.27;87.63;100913.03;5072654;28;20029;-75
2021/01/10 01:20:20;;;;;;;72.53;31.80;;;;;;;-2.24;87.40;100906.91;5072452;28;20028;-75
2021/01/10 01:22:47;;;;;;;68.38;31.63;;;;;;;-2.08;87.49;100933.09;5071660;28;20487;-76
2021/01/10 01:25:13;;;;;;;73.63;31.90;;;;;;;-2.01;87.95;100926.16;5071893;28;20131;-76
2021/01/10 01:27:38;;;;;;;69.43;31.13;;;;;;;-2.02;87.55;100946.19;5072750;28;20064;-76
2021/01/10 01:30:05;;;;;;;67.75;30.60;;;;;;;-2.11;87.31;100935.72;5055149;28;20124;-76
2021/01/10 01:32:34;;;;;;;73.45;30.60;;;;;;;-1.94;87.34;100930.50;5055272;28;20464;-78
2021/01/10 01:34:59;;;;;;;66.63;30.73;;;;;;;-1.99;87.09;100919.19;5071291;28;20059;-78
2021/01/10 01:37:24;;;;;;;69.93;32.05;;;;;;;-1.83;86.74;100923.56;5071235;28;20032;-78
2021/01/10 01:39:50;;;;;;;65.55;29.17;;;;;;;-2.11;87.15;100872.09;5071431;28;20039;-77
2021/01/10 01:42:15;;;;;;;74.45;31.15;;;;;;;-1.78;86.96;100932.28;5071439;28;20064;-77
2021/01/10 01:44:41;;;;;;;71.95;31.17;;;;;;;-1.98;86.94;100884.31;5071638;28;20112;-78
2021/01/10 01:47:07;;;;;;;64.35;29.35;;;;;;;-1.99;87.01;100886.94;5071774;28;20111;-77
2021/01/10 01:49:33;;;;;;;66.18;30.75;;;;;;;-1.67;86.71;100920.94;5055311;28;20047;-77
2021/01/10 01:51:58;;;;;;;67.00;30.35;;;;;;;-1.70;86.62;100900.03;5054842;28;20385;-77
2021/01/10 01:54:24;;;;;;;68.35;33.28;;;;;;;-1.66;86.18;100870.38;5038786;28;20135;-77
2021/01/10 01:56:49;;;;;;;71.53;32.90;;;;;;;-1.84;86.76;100871.22;5072378;28;20433;-77
2021/01/10 01:59:15;;;;;;;73.70;34.65;;;;;;;-1.54;86.46;100902.66;5072822;28;20036;-77
2021/01/10 02:01:41;;;;;;;75.38;35.40;;;;;;;-1.56;86.72;100908.72;5071175;28;20033;-78
2021/01/10 02:04:06;;;;;;;77.82;35.97;;;;;;;-1.50;86.89;100903.50;5055061;28;20032;-77
2021/01/10 02:06:40;;;;;;;80.45;35.88;;;;;;;-1.60;86.80;100886.94;5072876;28;20029;-77
2021/01/10 02:09:08;;;;;;;74.50;34.35;;;;;;;-1.86;86.44;100841.59;5072649;28;20036;-74
2021/01/10 02:11:36;;;;;;;76.43;34.17;;;;;;;-1.48;86.69;100901.75;5072577;28;20126;-74
2021/01/10 02:14:12;;;;;;;70.70;32.10;;;;;;;-1.42;86.05;100899.13;5071011;28;20397;-73
2021/01/10 02:16:39;;;;;;;74.55;33.83;;;;;;;-1.60;86.58;100870.38;5072495;28;20543;-73
2021/01/10 02:19:12;;;;;;;79.65;34.08;;;;;;;-1.46;86.51;100894.75;5054421;28;20039;-73
2021/01/10 02:21:42;;;;;;;70.35;32.08;;;;;;;-1.79;87.29;100851.19;5071444;28;20520;-74
2021/01/10 02:24:08;;;;;;;76.78;33.17;;;;;;;-1.45;86.89;100896.50;5072558;28;20036;-73
2021/01/10 02:26:34;;;;;;;70.90;33.10;;;;;;;-1.57;86.82;100901.75;5072395;28;20406;-73
2021/01/10 02:29:00;;;;;;;72.40;31.17;;;;;;;-1.57;87.70;100905.25;5072067;28;20041;-73
2021/01/10 02:31:31;;;;;;;71.10;31.63;;;;;;;-1.59;87.90;100904.38;5037820;28;20109;-72
2021/01/10 02:33:58;;;;;;;72.97;32.60;;;;;;;-1.47;87.28;100903.50;5072050;28;20181;-73
2021/01/10 02:36:37;;;;;;;72.30;32.38;;;;;;;-1.69;87.47;100896.53;5054900;28;20064;-73
2021/01/10 02:39:13;;;;;;;78.28;33.08;;;;;;;-1.77;87.80;100879.09;5052194;28;20028;-78
2021/01/10 02:41:59;;;;;;;72.75;31.60;;;;;;;-1.65;87.80;100896.50;5034690;28;20029;-78
2021/01/10 02:44:43;;;;;;;78.25;33.50;;;;;;;-1.68;87.49;100886.06;5034776;28;20404;-77
2021/01/10 02:47:09;;;;;;;76.38;32.92;;;;;;;-1.66;87.57;100894.78;5052769;28;20048;-77
2021/01/10 02:49:35;;;;;;;76.25;32.63;;;;;;;-1.64;87.67;100879.06;5019187;28;20051;-78
2021/01/10 02:52:00;;;;;;;73.80;33.05;;;;;;;-1.74;87.72;100889.56;5004987;28;20029;-78
2021/01/10 02:54:27;;;;;;;71.78;32.78;;;;;;;-1.78;87.52;100893.03;5021348;28;20401;-78
2021/01/10 02:57:18;;;;;;;76.60;34.33;;;;;;;-1.57;87.00;100897.38;5055612;28;20457;-75
2021/01/10 02:59:47;;;;;;;73.78;32.33;;;;;;;-1.67;87.09;100900.88;5055554;28;20024;-78
2021/01/10 03:02:14;;;;;;;77.95;34.17;;;;;;;-1.90;88.03;100893.03;5037995;28;20063;-79
2021/01/10 03:04:40;;;;;;;75.05;33.13;;;;;;;-1.71;87.79;100904.38;5055447;28;20390;-78
2021/01/10 03:07:08;;;;;;;71.28;32.13;;;;;;;-1.74;87.88;100902.66;5055620;28;20123;-80
2021/01/10 03:09:33;;;;;;;68.90;30.50;;;;;;;-1.69;87.41;100893.91;5055646;28;20072;-75
2021/01/10 03:12:25;;;;;;;75.43;33.83;;;;;;;-1.68;87.13;100895.66;5037332;28;20071;-74
2021/01/10 03:14:55;;;;;;;70.15;31.30;;;;;;;-2.02;88.02;100853.81;5037267;28;20029;-74
2021/01/10 03:17:29;;;;;;;65.57;29.88;;;;;;;-1.65;87.55;100887.78;5055280;28;20074;-76
2021/01/10 03:19:55;;;;;;;65.80;28.75;;;;;;;-1.85;87.86;100875.59;5054945;28;20409;-76
2021/01/10 03:22:20;;;;;;;71.22;29.92;;;;;;;-1.78;87.63;100889.56;5055168;28;20040;-78
2021/01/10 03:24:45;;;;;;;65.47;29.15;;;;;;;-1.95;87.40;100847.69;5037212;28;20041;-77
2021/01/10 03:27:11;;;;;;;72.38;30.65;;;;;;;-1.68;87.41;100887.81;5037460;28;20049;-76
2021/01/10 03:29:36;;;;;;;72.22;31.80;;;;;;;-1.93;88.02;100848.59;5037408;28;20044;-78
2021/01/10 03:32:02;;;;;;;70.57;30.42;;;;;;;-1.88;88.37;100891.28;5037104;28;20043;-77
2021/01/10 03:34:28;;;;;;;68.43;30.63;;;;;;;-2.08;88.51;100844.22;5037013;28;20398;-77
2021/01/10 03:36:53;;;;;;;65.97;30.38;;;;;;;-1.85;88.00;100885.19;5037087;28;20052;-78
2021/01/10 03:39:19;;;;;;;71.07;31.38;;;;;;;-1.75;87.53;100886.94;5020790;28;20033;-78
2021/01/10 03:41:44;;;;;;;69.10;30.92;;;;;;;-1.90;88.12;100885.19;5037254;28;20037;-78
2021/01/10 03:44:10;;;;;;;70.50;31.63;;;;;;;-2.26;88.70;100846.81;5020333;28;20060;-79
2021/01/10 03:46:35;;;;;;;73.70;31.60;;;;;;;-2.05;89.04;100895.63;5055020;28;20060;-79
2021/01/10 03:49:00;;;;;;;68.40;30.63;;;;;;;-2.10;88.59;100860.78;5036805;28;20040;-76
2021/01/10 03:51:27;;;;;;;71.30;31.33;;;;;;;-1.97;88.19;100867.75;5020390;28;20114;-75
2021/01/10 03:53:53;;;;;;;69.28;31.23;;;;;;;-1.95;88.13;100868.63;5054254;28;20043;-76
2021/01/10 03:56:18;;;;;;;68.75;31.58;;;;;;;-1.79;88.40;100879.97;5036827;28;20033;-76
2021/01/10 03:58:43;;;;;;;74.93;31.52;;;;;;;-1.80;87.90;100860.78;5020122;28;20033;-75
2021/01/10 04:01:09;;;;;;;71.13;32.05;;;;;;;-1.80;87.84;100888.69;5019465;28;20086;-74
2021/01/10 04:03:34;;;;;;;69.90;30.98;;;;;;;-1.81;88.81;100893.03;5037105;28;20036;-77
2021/01/10 04:06:00;;;;;;;72.22;32.83;;;;;;;-1.84;89.30;100900.88;5054401;28;20417;-79
2021/01/10 04:08:25;;;;;;;68.90;31.73;;;;;;;-1.80;88.79;100883.47;5036761;28;20044;-79
2021/01/10 04:10:51;;;;;;;72.28;30.73;;;;;;;-1.71;88.98;100887.81;5054043;28;20087;-79
2021/01/10 04:13:16;;;;;;;66.18;32.10;;;;;;;-1.55;87.79;100894.75;5020068;28;20466;-79
2021/01/10 04:15:41;;;;;;;65.40;31.48;;;;;;;-1.42;87.33;100901.75;5036517;28;20029;-80
2021/01/10 04:18:07;;;;;;;66.00;30.65;;;;;;;-1.49;87.52;100884.31;5053764;28;20029;-79
2021/01/10 04:20:32;;;;;;;70.10;33.33;;;;;;;-1.75;87.76;100858.16;5036472;28;20040;-79
2021/01/10 04:22:58;;;;;;;71.32;32.30;;;;;;;-1.51;87.82;100896.53;5053753;28;20111;-77
2021/01/10 04:25:23;;;;;;;69.95;32.25;;;;;;;-1.62;88.30;100893.91;5053846;28;20083;-76
2021/01/10 04:27:48;;;;;;;71.32;31.63;;;;;;;-1.61;88.67;100889.56;5053806;28;20482;-78
2021/01/10 04:30:14;;;;;;;71.40;32.30;;;;;;;-1.41;88.01;100898.25;5036103;28;20033;-77
2021/01/10 04:32:39;;;;;;;65.57;30.30;;;;;;;-1.48;87.57;100860.75;5036140;28;20033;-77
2021/01/10 04:35:06;;;;;;;73.07;32.08;;;;;;;-1.24;87.34;100896.50;5046256;28;20048;-77
2021/01/10 04:37:31;;;;;;;70.10;31.85;;;;;;;-1.26;87.18;100886.88;5072569;28;20047;-76
2021/01/10 04:39:56;;;;;;;65.80;31.80;;;;;;;-1.38;88.00;100892.16;5072270;28;20028;-77
2021/01/10 04:42:22;;;;;;;70.03;32.28;;;;;;;-1.65;87.46;100857.28;5073748;28;20119;-76
2021/01/10 04:44:48;;;;;;;73.15;32.03;;;;;;;-1.39;87.73;100901.75;5074141;28;20042;-76
2021/01/10 04:47:14;;;;;;;67.45;31.33;;;;;;;-1.65;87.72;100859.03;5073207;28;20036;-76
2021/01/10 04:49:39;;;;;;;75.13;33.25;;;;;;;-1.69;87.96;100855.56;5072665;28;20033;-76
2021/01/10 04:52:06;;;;;;;69.75;31.52;;;;;;;-1.46;87.81;100894.75;5073263;28;20437;-76
2021/01/10 04:54:40;;;;;;;69.63;31.58;;;;;;;-1.55;87.86;100889.53;5073489;28;20454;-76
2021/01/10 04:57:07;;;;;;;;;;;;;;;-1.41;88.39;100898.25;5072253;28;20043;-77
2021/01/10 04:59:33;;;;;;;71.82;30.42;;;;;;;-1.41;88.35;100898.25;5073533;28;20007;-76
2021/01/10 05:02:01;;;;;;;70.05;31.75;;;;;;;-1.43;88.20;100896.53;5038862;28;20029;-76
2021/01/10 05:04:29;;;;;;;74.18;31.17;;;;;;;-1.46;88.15;100906.09;5072459;28;20389;-76
2021/01/10 05:06:56;;;;;;;67.32;30.42;;;;;;;-1.53;88.64;100887.81;5071727;28;20032;-77
2021/01/10 05:09:24;;;;;;;68.97;30.58;;;;;;;-1.38;88.11;100902.63;5072034;28;20523;-78
2021/01/10 05:11:49;;;;;;;72.07;30.88;;;;;;;-1.41;88.26;100906.13;5072703;28;20040;-78
2021/01/10 05:14:15;;;;;;;72.43;30.38;;;;;;;-1.35;88.73;100908.72;5071844;28;20029;-78
2021/01/10 05:16:41;;;;;;;60.17;27.70;;;;;;;-1.38;87.62;100887.78;5072040;28;20134;-78
2021/01/10 05:19:07;;;;;;;64.68;27.98;;;;;;;-1.36;88.27;100896.50;5071843;28;20028;-77
2021/01/10 05:21:32;;;;;;;67.75;29.27;;;;;;;-1.58;87.71;100872.09;5055377;28;20036;-77
2021/01/10 05:23:59;;;;;;;64.65;26.90;;;;;;;-1.28;87.96;100925.28;5071601;28;20033;-77
2021/01/10 05:26:40;;;;;;;63.50;25.95;;;;;;;-1.39;87.55;100927.91;5073247;28;20040;-77
2021/01/10 05:29:06;;;;;;;53.40;24.02;;;;;;;-1.49;87.40;100897.38;5071653;28;20032;-76
2021/01/10 05:31:34;;;;;;;56.63;25.20;;;;;;;-1.50;87.89;100908.72;5072974;28;20119;-78
2021/01/10 05:33:59;;;;;;;60.00;24.73;;;;;;;-1.56;87.56;100903.50;5072971;28;20478;-78
2021/01/10 05:36:33;;;;;;;55.80;23.80;;;;;;;-1.45;87.35;100923.56;5071625;28;20056;-77
2021/01/10 05:39:16;;;;;;;53.42;22.33;;;;;;;-1.46;87.61;100934.00;5072600;28;20420;-77
2021/01/10 05:41:48;;;;;;;;;;;;;;;-1.44;87.20;100937.53;5072173;28;20111;-77
2021/01/10 05:44:13;;;;;;;58.38;21.58;;;;;;;-1.53;87.91;100945.38;5071487;28;20420;-77
2021/01/10 05:46:39;;;;;;;53.63;22.25;;;;;;;-1.65;87.42;100914.81;5072090;28;20102;-76
2021/01/10 05:49:15;;;;;;;54.13;22.15;;;;;;;-1.81;87.39;100882.59;5054593;28;20063;-77
2021/01/10 05:51:41;;;;;;;54.17;22.98;;;;;;;-1.39;86.97;100958.44;5071854;28;20036;-78
2021/01/10 05:54:06;;;;;;;46.05;17.95;;;;;;;-1.52;87.04;100941.88;5072828;28;20102;-78
2021/01/10 05:56:31;;;;;;;50.22;19.55;;;;;;;-1.48;86.71;100962.81;5071546;28;20115;-79
2021/01/10 05:58:57;;;;;;;55.85;20.15;;;;;;;-1.57;87.35;100965.41;5054547;28;20112;-79
2021/01/10 06:01:24;;;;;;;47.03;18.20;;;;;;;-1.59;87.18;100968.91;5072658;28;20478;-79
2021/01/10 06:03:51;;;;;;;46.60;17.98;;;;;;;-1.53;87.52;100971.53;5072579;28;20043;-75
2021/01/10 06:06:17;;;;;;;49.40;18.20;;;;;;;-1.55;87.03;100974.13;5071199;28;20045;-75
2021/01/10 06:08:43;;;;;;;50.13;19.00;;;;;;;-1.69;87.16;100948.84;5071513;28;20044;-76
2021/01/10 06:11:26;;;;;;;48.50;19.08;;;;;;;-1.62;86.93;100969.78;5071211;28;20037;-75
2021/01/10 06:13:56;;;;;;;48.30;18.83;;;;;;;-1.62;86.59;100979.38;5072687;28;20119;-76
2021/01/10 06:16:27;;;;;;;51.03;18.60;;;;;;;-1.56;86.80;100976.75;5071239;28;20658;-76
2021/01/10 06:18:57;;;;;;;44.45;18.48;;;;;;;-1.64;86.17;100989.84;5071355;28;20039;-76
2021/01/10 06:21:24;;;;;;;49.25;18.30;;;;;;;-1.96;86.55;100920.91;5072702;28;20112;-76
2021/01/10 06:23:52;;;;;;;45.25;17.65;;;;;;;-1.67;86.47;100970.63;5074317;28;20036;-75
2021/01/10 06:26:20;;;;;;;50.28;19.27;;;;;;;-1.58;86.08;100981.13;5074633;28;20071;-75
2021/01/10 06:28:50;;;;;;;43.28;17.15;;;;;;;-1.56;85.96;100988.09;5074993;28;20090;-75
2021/01/10 06:31:23;;;;;;;45.58;17.83;;;;;;;-1.61;86.19;100987.22;5076210;28;20485;-75
2021/01/10 06:33:55;;;;;;;47.58;17.75;;;;;;;-1.69;86.69;100969.78;5076463;28;20060;-76
2021/01/10 06:36:22;;;;;;;43.63;17.15;;;;;;;-1.59;86.14;100997.69;5074594;28;20052;-76
2021/01/10 06:38:51;;;;;;;44.05;17.05;;;;;;;-1.78;85.87;100960.16;5076053;28;20115;-76
2021/01/10 06:41:52;;;;;;;48.65;17.90;;;;;;;-1.60;86.07;100999.44;5075864;28;20132;-77
2021/01/10 06:44:19;;;;;;;49.95;18.33;;;;;;;-1.92;85.76;100943.59;5075760;28;20385;-77
2021/01/10 06:46:49;;;;;;;44.15;18.05;;;;;;;-1.71;86.04;100977.63;5075940;28;20060;-79
2021/01/10 06:49:15;;;;;;;44.72;17.73;;;;;;;-1.53;85.92;101000.31;5075554;28;20025;-77
2021/01/10 06:51:45;;;;;;;42.17;15.38;;;;;;;-1.54;85.81;100990.72;5075770;28;20051;-77
2021/01/10 06:54:11;;;;;;;45.33;18.23;;;;;;;-1.55;85.90;101009.88;5074572;28;20032;-78
2021/01/10 06:56:37;;;;;;;51.15;19.17;;;;;;;-1.53;86.28;101008.16;5076038;28;20493;-81
2021/01/10 06:59:12;;;;;;;46.50;17.95;;;;;;;-1.49;86.46;101002.06;5057941;28;20389;-81
2021/01/10 07:01:52;;;;;;;48.97;18.75;;;;;;;-1.61;86.34;100991.59;5076152;28;20111;-81
2021/01/10 07:04:20;;;;;;;47.28;18.17;;;;;;;-1.62;86.67;101003.78;5075322;28;20111;-76
2021/01/10 07:06:50;;;;;;;50.13;18.98;;;;;;;-1.58;86.96;101004.66;5076043;28;20036;-80
2021/01/10 07:09:17;;;;;;;51.83;18.70;;;;;;;-1.80;86.68;100957.56;5075210;28;20043;-80
2021/01/10 07:11:44;;;;;;;49.60;19.40;;;;;;;-1.64;86.74;100983.72;5075399;28;20037;-76
2021/01/10 07:14:09;;;;;;;48.45;19.42;;;;;;;-1.41;86.72;100997.69;5074070;28;20032;-77
2021/01/10 07:16:35;;;;;;;51.17;17.98;;;;;;;-1.50;86.25;100998.56;5074335;28;20028;-77
2021/01/10 07:19:03;;;;;;;55.42;20.23;;;;;;;-1.75;86.84;100955.81;5075107;28;20036;-75
2021/01/10 07:21:36;;;;;;;49.75;19.85;;;;;;;-1.49;87.04;101015.13;5075450;28;20035;-75
2021/01/10 07:24:13;;;;;;;54.08;19.08;;;;;;;-1.40;86.97;101015.16;5074158;28;20498;-75
2021/01/10 07:26:40;;;;;;;56.78;18.85;;;;;;;-1.35;87.48;101015.13;5075121;28;20386;-74
2021/01/10 07:29:31;;;;;;;53.47;20.23;;;;;;;-1.26;86.82;101023.88;5073851;28;20044;-78
2021/01/10 07:32:01;;;;;;;48.85;18.08;;;;;;;-1.45;86.56;100977.63;5074434;28;20354;-76
2021/01/10 07:34:31;;;;;;;55.92;20.33;;;;;;;-1.19;86.49;101017.75;5072826;28;20028;-75
2021/01/10 07:36:59;;;;;;;56.67;21.27;;;;;;;-1.24;86.81;101024.75;5054975;28;20156;-75
2021/01/10 07:39:28;;;;;;;54.78;20.25;;;;;;;-1.21;86.78;101032.59;5054491;28;20063;-75
2021/01/10 07:42:14;;;;;;;53.45;20.83;;;;;;;-1.15;86.55;101031.75;5054743;28;20095;-76
2021/01/10 07:44:51;;;;;;;54.55;20.40;;;;;;;-1.07;86.50;101026.47;5054921;28;20029;-75
2021/01/10 07:47:19;;;;;;;55.67;22.20;;;;;;;-1.18;86.47;101023.88;5055902;28;20036;-75
2021/01/10 07:49:52;;;;;;;64.22;22.00;;;;;;;-1.21;86.67;101016.91;5059166;28;20029;-76
2021/01/10 07:52:49;;;;;;;58.47;21.45;;;;;;;-1.20;86.57;101018.66;5036442;28;20063;-76
2021/01/10 07:55:18;;;;;;;55.30;21.30;;;;;;;-1.14;86.58;101022.16;5036736;28;20037;-78
2021/01/10 07:57:50;;;;;;;64.05;21.58;;;;;;;-1.31;87.37;101009.06;5036964;28;20102;-79
2021/01/10 08:00:30;;;;;;;56.03;20.25;;;;;;;-1.18;87.07;101021.25;5032915;28;20119;-80
2021/01/10 08:03:02;;;;;;;56.63;21.23;;;;;;;-1.21;87.13;101013.41;5017462;28;20044;-81
2021/01/10 08:05:41;;;;;;;53.78;21.38;;;;;;;-1.17;86.88;101007.28;5034257;28;20039;-77
2021/01/10 08:08:16;;;;;;;64.75;23.73;;;;;;;-1.28;87.76;101012.53;5043443;28;20033;-78
2021/01/10 08:10:56;;;;;;;60.20;21.67;;;;;;;-1.20;87.77;101005.56;5026209;28;20032;-78
2021/01/10 08:13:40;;;;;;;55.03;21.50;;;;;;;-1.24;87.88;101011.69;5043141;28;20335;-77
2021/01/10 08:16:29;;;;;;;55.88;21.90;;;;;;;-1.25;87.91;101020.41;5054396;28;20047;-77
2021/01/10 08:19:00;;;;;;;62.03;22.70;;;;;;;-1.27;88.12;101011.66;5036114;28;20031;-78
2021/01/10 08:21:26;;;;;;;59.28;21.40;;;;;;;-1.29;88.08;101031.72;5050097;28;20025;-78
2021/01/10 08:23:55;;;;;;;61.97;21.55;;;;;;;-1.31;88.38;101015.16;5020055;28;20099;-79
2021/01/10 08:26:21;;;;;;;55.72;19.75;;;;;;;-1.43;88.28;101011.66;5038585;28;20047;-82
2021/01/10 08:28:50;;;;;;;59.30;20.23;;;;;;;-1.53;88.61;101029.09;5034267;28;20029;-78
2021/01/10 08:31:20;;;;;;;62.28;20.50;;;;;;;-1.48;88.74;101024.72;5016099;28;20042;-76
2021/01/10 08:33:48;;;;;;;58.72;20.33;;;;;;;-1.89;88.59;100959.28;5015905;28;20041;-75
2021/01/10 08:36:19;;;;;;;53.80;19.00;;;;;;;-1.45;88.18;101027.34;5033624;28;20060;-78
2021/01/10 08:39:02;;;;;;;52.28;18.20;;;;;;;-1.43;87.32;101030.84;5016096;28;20033;-74
2021/01/10 08:41:27;;;;;;;51.38;18.13;;;;;;;-1.39;87.30;101036.94;5048359;28;20043;-72
2021/01/10 08:43:56;;;;;;;50.13;19.02;;;;;;;-1.70;87.60;100983.72;5035012;28;20041;-77
2021/01/10 08:46:23;;;;;;;59.08;17.38;;;;;;;-1.48;87.40;101037.81;5051489;28;20082;-74
2021/01/10 08:48:49;;;;;;;56.58;19.73;;;;;;;-1.53;87.97;101034.34;5014562;28;20029;-74
2021/01/10 08:51:34;;;;;;;50.45;17.10;;;;;;;-1.43;87.61;101033.47;5052318;28;20090;-77
2021/01/10 08:54:10;;;;;;;54.00;19.23;;;;;;;-1.39;87.74;101026.50;5053020;28;20032;-76
2021/01/10 08:56:36;;;;;;;56.65;19.35;;;;;;;-1.33;87.68;101043.06;5034117;28;20493;-75
2021/01/10 08:59:03;;;;;;;48.67;17.65;;;;;;;-1.26;87.45;101023.88;5052465;28;20060;-75
2021/01/10 09:01:29;;;;;;;52.40;18.33;;;;;;;-1.55;87.25;101009.88;5052274;28;20039;-75
2021/01/10 09:04:04;;;;;;;49.90;18.20;;;;;;;-1.31;87.68;101049.19;5014760;28;20124;-74
2021/01/10 09:06:43;;;;;;;57.03;18.42;;;;;;;-1.29;87.59;101055.28;5033324;28;20389;-71
2021/01/10 09:09:38;;;;;;;54.53;19.08;;;;;;;-1.31;87.36;101046.56;5032484;28;20471;-73
2021/01/10 09:12:13;;;;;;;55.58;19.98;;;;;;;-1.17;87.24;101063.13;5032841;28;20025;-72
2021/01/10 09:15:11;;;;;;;59.60;20.92;;;;;;;-1.10;87.06;101064.03;5015857;28;20467;-74
2021/01/10 09:17:38;;;;;;;58.75;18.70;;;;;;;-1.22;86.81;101050.94;5024012;28;20128;-71
2021/01/10 09:20:08;;;;;;;62.90;19.45;;;;;;;-1.22;87.38;101056.16;5032975;28;20033;-72
2021/01/10 09:22:34;;;;;;;62.00;19.38;;;;;;;-1.14;87.66;101053.56;5033096;28;20390;-73
2021/01/10 09:25:17;;;;;;;66.63;20.95;;;;;;;-1.25;86.83;101028.25;5042246;28;20121;-74
2021/01/10 09:28:06;;;;;;;53.65;18.83;;;;;;;-1.17;86.88;101054.41;5015694;28;20502;-73
2021/01/10 09:30:32;;;;;;;60.10;19.13;;;;;;;-1.13;87.42;101055.31;5033358;28;20029;-73
2021/01/10 09:32:58;;;;;;;59.47;20.30;;;;;;;-1.10;87.06;101053.56;5015624;28;20049;-73
2021/01/10 09:35:24;;;;;;;57.13;19.92;;;;;;;-1.23;87.53;101044.81;5031095;28;20128;-73
2021/01/10 09:37:50;;;;;;;54.38;19.48;;;;;;;-1.13;87.35;101056.19;5053348;28;20493;-73
2021/01/10 09:40:17;;;;;;;62.10;21.52;;;;;;;-1.20;87.41;101039.59;5052182;28;20091;-72
2021/01/10 09:42:44;;;;;;;50.45;17.13;;;;;;;-1.05;86.47;101059.69;5060904;28;20105;-74
2021/01/10 09:45:11;;;;;;;49.13;17.95;;;;;;;-1.38;87.00;101023.88;5073512;28;20378;-71
2021/01/10 09:47:38;;;;;;;60.30;19.48;;;;;;;-1.30;87.77;101048.31;5072904;28;20033;-73
2021/01/10 09:50:14;;;;;;;55.42;18.83;;;;;;;-1.28;87.53;101054.41;5072515;28;20470;-73
2021/01/10 09:52:53;;;;;;;61.50;19.88;;;;;;;-1.27;87.77;101040.44;5071781;28;20032;-72
2021/01/10 09:55:20;;;;;;;60.70;19.02;;;;;;;-1.23;87.17;101029.13;5072654;28;20382;-72
2021/01/10 09:57:46;;;;;;;63.33;20.98;;;;;;;-1.16;87.14;101025.63;5062165;28;20048;-73
2021/01/10 10:00:15;;;;;;;60.80;22.30;;;;;;;-1.10;87.20;101018.63;5072584;28;20041;-73
2021/01/10 10:02:47;;;;;;;53.38;18.23;;;;;;;-1.07;86.70;101014.25;5068054;28;20029;-71
2021/01/10 10:05:25;;;;;;;61.33;20.58;;;;;;;-1.23;86.75;100982.00;5069876;28;20032;-72
2021/01/10 10:07:59;;;;;;;56.60;19.98;;;;;;;-1.02;86.70;101011.66;5064255;28;20025;-73
2021/01/10 10:10:25;;;;;;;53.97;18.83;;;;;;;-1.06;86.17;101016.03;5059414;28;20037;-71
2021/01/10 10:13:01;;;;;;;57.40;20.00;;;;;;;-1.04;86.59;101014.28;5073251;28;20488;-71
2021/01/10 10:15:43;;;;;;;58.95;20.40;;;;;;;-1.07;86.81;101018.63;5066291;28;20064;-73
2021/01/10 10:18:16;;;;;;;61.40;19.58;;;;;;;-1.05;87.32;101022.16;5056288;28;20033;-73
2021/01/10 10:20:42;;;;;;;60.15;21.02;;;;;;;-1.16;87.03;100999.47;5056568;28;20033;-72
2021/01/10 10:23:09;;;;;;;55.70;19.15;;;;;;;-1.24;86.78;100987.25;5055028;28;20131;-73
2021/01/10 10:25:35;;;;;;;54.33;19.65;;;;;;;-1.06;86.36;101004.66;5056607;28;20043;-71
2021/01/10 10:28:01;;;;;;;58.22;20.08;;;;;;;-1.19;87.12;101009.91;5055243;28;20043;-82
2021/01/10 10:30:27;;;;;;;54.15;19.85;;;;;;;-1.01;87.02;101021.25;5055062;28;20033;-73
2021/01/10 10:32:53;;;;;;;60.33;21.52;;;;;;;-1.01;87.39;101018.63;5055351;28;20037;-73
2021/01/10 10:35:19;;;;;;;62.33;21.70;;;;;;;-1.05;86.76;101014.28;5054686;28;20513;-77
2021/01/10 10:37:45;;;;;;;63.95;22.13;;;;;;;-0.99;87.04;101009.03;5056385;28;20138;-74
2021/01/10 10:40:11;;;;;;;57.33;20.67;;;;;;;-1.27;87.11;100974.13;5055969;28;20526;-74
2021/01/10 10:42:36;;;;;;;56.30;19.80;;;;;;;-1.08;86.42;101014.28;5056433;28;20033;-73
2021/01/10 10:45:02;;;;;;;65.15;22.92;;;;;;;-0.91;86.30;101028.22;5059464;28;20105;-72
2021/01/10 10:47:28;;;;;;;58.47;20.80;;;;;;;-1.36;86.46;100961.91;5061915;28;20033;-72
2021/01/10 10:49:53;;;;;;;54.40;19.10;;;;;;;-0.87;85.75;101012.53;5056308;28;20475;-74
2021/01/10 10:52:19;;;;;;;56.58;20.17;;;;;;;-0.88;85.44;100996.78;5056288;28;20080;-73
2021/01/10 10:54:44;;;;;;;57.20;20.45;;;;;;;-0.87;85.48;101006.38;5056432;28;20029;-73
2021/01/10 10:57:10;;;;;;;56.85;20.50;;;;;;;-0.94;85.69;101002.06;5056380;28;20119;-72
2021/01/10 10:59:37;;;;;;;54.15;20.02;;;;;;;-1.37;86.40;100947.09;5056121;28;20439;-76
2021/01/10 11:02:03;;;;;;;55.65;20.42;;;;;;;-1.10;86.54;100967.16;5054819;28;20493;-76
2021/01/10 11:04:28;;;;;;;55.20;19.80;;;;;;;-1.12;86.23;100979.38;5056086;28;20044;-75
2021/01/10 11:06:54;;;;;;;55.30;20.73;;;;;;;-1.22;86.55;100957.56;5054658;28;20048;-77
2021/01/10 11:09:19;;;;;;;57.65;21.45;;;;;;;-1.16;86.79;100972.38;5055596;28;20044;-75
2021/01/10 11:11:50;;;;;;;55.13;20.58;;;;;;;-1.05;86.85;100983.75;5054075;28;20037;-73
2021/01/10 11:14:17;;;;;;;57.95;21.17;;;;;;;-1.06;86.79;100973.25;5060900;28;20024;-75
2021/01/10 11:16:43;;;;;;;56.38;20.17;;;;;;;-0.97;86.99;100974.09;5075879;28;20060;-72
2021/01/10 11:19:10;;;;;;;51.92;19.58;;;;;;;-0.98;86.83;100976.72;5075690;28;20071;-75